Time;durP1;ratioP1;P1;durP2;ratioP2;P2;SDS_P1;SDS_P2;PMS_P1;PMS_P2;Temp;Humidity;BMP_temperature;BMP_pressure;BME280_temperature;BME280_humidity;BME280_pressure;Samples;Min_cycle;Max_cycle;Signal;HPM_P1;HPM_P2
2023/02/03 00:00:05;;;;;;;;;;;;;;;3.24;100.00;96717.19;10514175;28;2263;-68
2023/02/03 00:05:08;;;;;;;;;;;;;;;3.28;100.00;96719.41;10533302;28;2321;-67
2023/02/03 00:10:10;;;;;;;;;;;;;;;3.29;100.00;96721.03;10528713;28;2384;-71
2023/02/03 00:15:13;;;;;;;;;;;;;;;3.31;100.00;96719.84;10527346;28;2365;-76
2023/02/03 00:20:15;;;;;;;;;;;;;;;3.30;100.00;96720.00;10528952;28;2334;-69
2023/02/03 00:25:17;;;;;;;;;;;;;;;3.32;100.00;96716.16;10531812;28;1934;-67
2023/02/03 00:30:20;;;;;;;;;;;;;;;3.39;100.00;96705.50;10531118;28;2433;-68
2023/02/03 00:35:22;;;;;;;;;;;;;;;3.41;100.00;96703.47;10530260;28;2362;-67
2023/02/03 00:40:24;;;;;;;;;;;;;;;3.42;100.00;96711.22;10531061;28;2339;-70
2023/02/03 00:45:27;;;;;;;;;;;;;;;3.44;100.00;96705.72;10528291;28;2342;-68
2023/02/03 00:50:30;;;;;;;;;;;;;;;3.49;100.00;96706.72;10522345;28;2372;-68
2023/02/03 00:55:32;;;;;;;;;;;;;;;3.53;100.00;96713.25;10526934;28;2377;-68
2023/02/03 01:00:35;;;;;;;;;;;;;;;3.51;100.00;96715.31;10530078;28;2397;-67
2023/02/03 01:05:37;;;;;;;;;;;;;;;3.51;100.00;96703.88;10525845;28;2318;-68
2023/02/03 01:10:40;;;;;;;;;;;;;;;3.58;100.00;96725.13;10525689;28;2334;-68
2023/02/03 01:15:42;;;;;;;;;;;;;;;3.55;100.00;96726.34;10513879;28;2366;-68
2023/02/03 01:20:44;;;;;;;;;;;;;;;3.57;100.00;96729.63;10527587;28;2356;-68
2023/02/03 01:25:47;;;;;;;;;;;;;;;3.60;100.00;96736.38;10526104;28;2294;-68
2023/02/03 01:30:49;;;;;;;;;;;;;;;3.64;100.00;96730.44;10529133;28;2366;-68
2023/02/03 01:35:51;;;;;;;;;;;;;;;3.65;100.00;96707.31;10524179;28;2235;-68
2023/02/03 01:40:54;;;;;;;;;;;;;;;3.63;100.00;96702.22;10522139;28;2282;-69
2023/02/03 01:45:57;;;;;;;;;;;;;;;3.62;100.00;96697.91;10523310;28;1974;-67
2023/02/03 01:50:59;;;;;;;;;;;;;;;3.63;100.00;96690.78;10530065;28;2371;-68
2023/02/03 01:56:03;;;;;;;;;;;;;;;3.58;100.00;96696.69;10526711;28;2797;-68
2023/02/03 02:01:06;;;;;;;;;;;;;;;3.58;100.00;96688.72;10522211;28;2362;-68
2023/02/03 02:06:08;;;;;;;;;;;;;;;3.58;100.00;96661.31;10520142;28;2326;-68
2023/02/03 02:11:11;;;;;;;;;;;;;;;3.63;100.00;96665.00;10524769;28;2338;-68
2023/02/03 02:16:13;;;;;;;;;;;;;;;3.68;100.00;96681.13;10527208;28;2298;-71
2023/02/03 02:21:15;;;;;;;;;;;;;;;3.68;100.00;96699.75;10512029;28;2294;-72
2023/02/03 02:26:18;;;;;;;;;;;;;;;3.72;100.00;96685.00;10522319;28;2364;-70
2023/02/03 02:31:20;;;;;;;;;;;;;;;3.75;100.00;96678.44;10519020;28;2291;-68
2023/02/03 02:36:23;;;;;;;;;;;;;;;3.76;100.00;96691.56;10524021;28;2279;-68
2023/02/03 02:41:25;;;;;;;;;;;;;;;3.74;100.00;96688.28;10524914;28;1989;-68
2023/02/03 02:46:28;;;;;;;;;;;;;;;3.75;100.00;96705.88;10522414;28;1994;-69
2023/02/03 02:51:30;;;;;;;;;;;;;;;3.81;100.00;96693.56;10518940;28;2079;-69
2023/02/03 02:56:33;;;;;;;;;;;;;;;3.82;100.00;96673.97;10518394;28;2283;-68
2023/02/03 03:01:36;;;;;;;;;;;;;;;3.80;100.00;96670.66;10524338;28;2015;-69
2023/02/03 03:06:39;;;;;;;;;;;;;;;3.86;100.00;96677.00;10520191;28;2077;-72
2023/02/03 03:11:41;;;;;;;;;;;;;;;3.85;100.00;96694.00;10524566;28;2040;-69
2023/02/03 03:16:44;;;;;;;;;;;;;;;3.85;100.00;96680.69;10539829;28;2334;-68
2023/02/03 03:21:46;;;;;;;;;;;;;;;3.90;100.00;96704.81;10530355;28;2418;-68
2023/02/03 03:26:49;;;;;;;;;;;;;;;3.89;100.00;96695.22;10533493;28;2357;-66
2023/02/03 03:31:51;;;;;;;;;;;;;;;3.87;100.00;96686.59;10529542;28;2115;-68
2023/02/03 03:36:53;;;;;;;;;;;;;;;3.93;100.00;96665.31;10532494;28;2364;-68
2023/02/03 03:41:56;;;;;;;;;;;;;;;3.89;100.00;96652.66;10526677;28;2759;-67
2023/02/03 03:46:58;;;;;;;;;;;;;;;3.89;100.00;96640.19;10528941;28;2377;-67
2023/02/03 03:52:00;;;;;;;;;;;;;;;3.95;100.00;96647.31;10524987;28;2390;-68
2023/02/03 03:57:03;;;;;;;;;;;;;;;3.92;100.00;96662.88;10528272;28;2338;-68
2023/02/03 04:02:05;;;;;;;;;;;;;;;3.91;100.00;96663.91;10534619;28;2231;-67
2023/02/03 04:07:07;;;;;;;;;;;;;;;3.90;100.00;96656.94;10534018;28;2429;-67
2023/02/03 04:12:10;;;;;;;;;;;;;;;3.85;100.00;96668.22;10531457;28;2085;-68
2023/02/03 04:17:12;;;;;;;;;;;;;;;3.85;100.00;96694.81;10524847;28;2309;-68
2023/02/03 04:22:15;;;;;;;;;;;;;;;3.86;100.00;96695.63;10523873;28;2386;-68
2023/02/03 04:27:17;;;;;;;;;;;;;;;3.78;100.00;96694.00;10524750;28;2414;-68
2023/02/03 04:32:20;;;;;;;;;;;;;;;3.83;100.00;96690.72;10524784;28;2387;-67
2023/02/03 04:37:22;;;;;;;;;;;;;;;3.79;100.00;96680.50;10525065;28;2353;-67
2023/02/03 04:42:25;;;;;;;;;;;;;;;3.83;100.00;96678.25;10528843;28;2286;-68
2023/02/03 04:47:27;;;;;;;;;;;;;;;3.74;100.00;96701.56;10524807;28;2345;-68
2023/02/03 04:52:30;;;;;;;;;;;;;;;3.77;100.00;96722.44;10528267;28;2383;-68
2023/02/03 04:57:32;;;;;;;;;;;;;;;3.74;100.00;96693.59;10526049;28;2330;-67
2023/02/03 05:02:35;;;;;;;;;;;;;;;3.74;100.00;96704.22;10527129;28;2298;-67
2023/02/03 05:07:37;;;;;;;;;;;;;;;3.76;100.00;96685.44;10525102;28;2378;-69
2023/02/03 05:12:40;;;;;;;;;;;;;;;3.70;100.00;96697.72;10524632;28;2369;-67
2023/02/03 05:17:42;;;;;;;;;;;;;;;3.69;100.00;96695.22;10522104;28;2322;-68
2023/02/03 05:22:44;;;;;;;;;;;;;;;3.68;100.00;96697.06;10533683;28;2399;-68
2023/02/03 05:27:47;;;;;;;;;;;;;;;3.71;100.00;96688.69;10523221;28;1967;-67
2023/02/03 05:32:49;;;;;;;;;;;;;;;3.69;100.00;96680.13;10526574;28;2281;-68
2023/02/03 05:37:52;;;;;;;;;;;;;;;3.68;100.00;96659.84;10525356;28;2734;-68
2023/02/03 05:42:54;;;;;;;;;;;;;;;3.68;100.00;96659.84;10524872;28;2372;-69
2023/02/03 05:47:57;;;;;;;;;;;;;;;3.73;100.00;96632.66;10520507;28;2301;-68
2023/02/03 05:52:59;;;;;;;;;;;;;;;3.69;100.00;96645.56;10523095;28;2365;-67
2023/02/03 05:58:01;;;;;;;;;;;;;;;3.77;100.00;96665.78;10524806;28;2357;-70
2023/02/03 06:03:04;;;;;;;;;;;;;;;3.77;100.00;96658.63;10523082;28;2346;-74
2023/02/03 06:08:06;;;;;;;;;;;;;;;3.70;100.00;96659.66;10497909;28;2357;-74
2023/02/03 06:13:08;;;;;;;;;;;;;;;3.73;100.00;96667.22;10518420;28;2346;-67
2023/02/03 06:18:11;;;;;;;;;;;;;;;3.73;100.00;96673.34;10545269;28;2585;-66
2023/02/03 06:23:13;;;;;;;;;;;;;;;3.73;100.00;96664.56;10523235;28;2298;-68
2023/02/03 06:28:16;;;;;;;;;;;;;;;3.80;100.00;96684.78;10527139;28;2261;-68
2023/02/03 06:33:18;;;;;;;;;;;;;;;3.78;100.00;96688.69;10525818;28;2287;-68
2023/02/03 06:38:21;;;;;;;;;;;;;;;3.78;100.00;96673.53;10522667;28;2349;-68
2023/02/03 06:43:23;;;;;;;;;;;;;;;3.78;100.00;96652.28;10524421;28;2369;-70
2023/02/03 06:48:26;;;;;;;;;;;;;;;3.86;100.00;96658.38;10521155;28;2357;-68
2023/02/03 06:53:28;;;;;;;;;;;;;;;3.83;100.00;96669.44;10524524;28;2334;-69
2023/02/03 06:58:30;;;;;;;;;;;;;;;3.93;100.00;96691.09;10507780;28;2353;-68
2023/02/03 07:03:33;;;;;;;;;;;;;;;3.86;100.00;96688.44;10517372;28;1975;-69
2023/02/03 07:08:35;;;;;;;;;;;;;;;3.92;100.00;96694.78;10521357;28;1927;-68
2023/02/03 07:13:38;;;;;;;;;;;;;;;3.95;100.00;96679.25;10519291;28;2394;-68
2023/02/03 07:18:40;;;;;;;;;;;;;;;4.01;100.00;96678.41;10514784;28;2459;-68
2023/02/03 07:23:49;;;;;;;;;;;;;;;4.07;100.00;96652.78;10522205;28;2354;-69
2023/02/03 07:28:53;;;;;;;;;;;;;;;4.05;100.00;96658.31;10518874;28;2384;-67
2023/02/03 07:33:56;;;;;;;;;;;;;;;4.09;100.00;96653.41;10520398;28;2478;-69
2023/02/03 07:38:58;;;;;;;;;;;;;;;4.14;100.00;96634.97;10516786;28;2707;-68
2023/02/03 07:44:01;;;;;;;;;;;;;;;4.25;100.00;96623.63;10524670;28;2215;-70
2023/02/03 07:49:04;;;;;;;;;;;;;;;4.29;100.00;96630.16;10525523;28;2294;-69
2023/02/03 07:54:07;;;;;;;;;;;;;;;4.42;100.00;96620.47;10528743;28;2275;-69
2023/02/03 07:59:09;;;;;;;;;;;;;;;4.48;100.00;96625.75;10529615;28;2298;-71
2023/02/03 08:04:15;;;;;;;;;;;;;;;4.69;100.00;96627.25;10512134;28;2125;-73
2023/02/03 08:09:17;;;;;;;;;;;;;;;4.68;100.00;96630.94;10527854;28;2298;-72
2023/02/03 08:14:19;;;;;;;;;;;;;;;4.85;100.00;96632.06;10534153;28;2291;-71
2023/02/03 08:19:22;;;;;;;;;;;;;;;4.97;100.00;96644.69;10530694;28;2321;-72
2023/02/03 08:24:24;;;;;;;;;;;;;;;4.95;100.00;96646.75;10528383;28;2051;-72
2023/02/03 08:29:27;;;;;;;;;;;;;;;4.98;100.00;96644.47;10537380;28;2634;-71
2023/02/03 08:34:29;;;;;;;;;;;;;;;5.00;100.00;96657.56;10528756;28;2295;-73
2023/02/03 08:39:32;;;;;;;;;;;;;;;4.85;100.00;96658.72;10522567;28;2330;-70
2023/02/03 08:44:34;;;;;;;;;;;;;;;5.01;100.00;96661.88;10527713;28;2342;-70
2023/02/03 08:49:38;;;;;;;;;;;;;;;4.99;100.00;96638.09;10525772;28;2028;-74
2023/02/03 08:54:40;;;;;;;;;;;;;;;5.09;100.00;96626.94;10541697;28;2271;-70
2023/02/03 08:59:43;;;;;;;;;;;;;;;5.21;100.00;96627.88;10532953;28;2398;-72
2023/02/03 09:04:46;;;;;;;;;;;;;;;5.18;100.00;96603.50;10535910;28;2329;-71
2023/02/03 09:09:48;;;;;;;;;;;;;;;5.40;100.00;96610.88;10540690;28;2431;-71
2023/02/03 09:14:51;;;;;;;;;;;;;;;5.30;100.00;96629.25;10512558;28;2312;-73
2023/02/03 09:19:53;;;;;;;;;;;;;;;5.40;100.00;96613.53;10533658;28;2029;-71
2023/02/03 09:24:56;;;;;;;;;;;;;;;5.56;100.00;96622.00;10532641;28;2336;-70
2023/02/03 09:29:58;;;;;;;;;;;;;;;5.63;100.00;96633.44;10536128;28;2313;-72
2023/02/03 09:35:00;;;;;;;;;;;;;;;5.66;100.00;96616.97;10530600;28;2714;-71
2023/02/03 09:40:03;;;;;;;;;;;;;;;5.71;100.00;96635.78;10522077;28;2318;-71
2023/02/03 09:45:05;;;;;;;;;;;;;;;5.84;100.00;96608.16;10523895;28;2463;-73
2023/02/03 09:50:08;;;;;;;;;;;;;;;5.91;100.00;96603.59;10521984;28;2314;-72
2023/02/03 09:55:10;;;;;;;;;;;;;;;6.02;100.00;96620.72;10525521;28;2527;-71
2023/02/03 10:00:13;;;;;;;;;;;;;;;6.27;100.00;96607.25;10521850;28;2279;-72
2023/02/03 10:05:15;;;;;;;;;;;;;;;6.18;100.00;96593.41;10525737;28;2365;-72
2023/02/03 10:10:17;;;;;;;;;;;;;;;6.04;100.00;96611.44;10520758;28;2065;-71
2023/02/03 10:15:19;;;;;;;;;;;;;;;6.17;100.00;96613.97;10530427;28;2719;-71
2023/02/03 10:20:22;;;;;;;;;;;;;;;6.04;100.00;96629.28;10525047;28;2290;-71
2023/02/03 10:25:24;;;;;;;;;;;;;;;6.20;100.00;96607.34;10521258;28;2302;-71
2023/02/03 10:30:27;;;;;;;;;;;;;;;6.16;100.00;96598.97;10517576;28;2357;-73
2023/02/03 10:35:30;;;;;;;;;;;;;;;6.38;100.00;96599.28;10507778;28;2318;-72
2023/02/03 10:40:32;;;;;;;;;;;;;;;6.69;100.00;96605.44;10524303;28;2347;-72
2023/02/03 10:45:35;;;;;;;;;;;;;;;6.57;100.00;96599.25;10519612;28;2468;-70
2023/02/03 10:50:37;;;;;;;;;;;;;;;6.66;100.00;96589.84;10526678;28;2341;-72
2023/02/03 10:55:39;;;;;;;;;;;;;;;6.55;100.00;96593.28;10501902;28;2289;-72
2023/02/03 11:00:41;;;;;;;;;;;;;;;6.68;100.00;96601.09;10513240;28;2446;-72
2023/02/03 11:05:44;;;;;;;;;;;;;;;6.87;100.00;96589.34;10528366;28;2326;-71
2023/02/03 11:10:46;;;;;;;;;;;;;;;7.01;100.00;96572.03;10537873;28;3034;-72
2023/02/03 11:15:49;;;;;;;;;;;;;;;7.18;100.00;96556.09;10533654;28;2235;-69
2023/02/03 11:20:51;;;;;;;;;;;;;;;7.02;100.00;96562.97;10527031;28;2030;-71
2023/02/03 11:25:54;;;;;;;;;;;;;;;6.99;100.00;96549.22;10524290;28;2303;-71
2023/02/03 11:30:56;;;;;;;;;;;;;;;7.19;100.00;96546.19;10518733;28;2423;-71
2023/02/03 11:35:59;;;;;;;;;;;;;;;7.13;100.00;96518.56;10524895;28;2062;-70
2023/02/03 11:41:01;;;;;;;;;;;;;;;7.31;100.00;96522.94;10530102;28;2372;-71
2023/02/03 11:46:03;;;;;;;;;;;;;;;7.32;100.00;96522.72;10537503;28;2373;-70
2023/02/03 11:51:06;;;;;;;;;;;;;;;7.22;100.00;96511.00;10546014;27;2114;-70
2023/02/03 11:56:08;;;;;;;;;;;;;;;7.28;100.00;96502.03;10531149;28;2250;-70
2023/02/03 12:01:11;;;;;;;;;;;;;;;7.20;100.00;96511.22;10527295;28;2341;-70
2023/02/03 12:06:13;;;;;;;;;;;;;;;6.91;100.00;96491.59;10535776;28;2385;-71
2023/02/03 12:11:15;;;;;;;;;;;;;;;6.71;100.00;96497.28;10528656;28;2337;-71
2023/02/03 12:16:18;;;;;;;;;;;;;;;6.76;100.00;96524.13;10526908;28;2342;-72
2023/02/03 12:21:20;;;;;;;;;;;;;;;6.71;100.00;96475.09;10513852;28;2294;-72
2023/02/03 12:26:23;;;;;;;;;;;;;;;6.83;100.00;96477.78;10526938;28;2450;-70
2023/02/03 12:31:28;;;;;;;;;;;;;;;6.89;100.00;96448.25;10530014;28;2250;-72
2023/02/03 12:36:30;;;;;;;;;;;;;;;7.02;100.00;96444.53;10523719;28;1950;-71
2023/02/03 12:41:34;;;;;;;;;;;;;;;7.02;100.00;96440.00;10525906;28;2286;-72
2023/02/03 12:46:37;;;;;;;;;;;;;;;7.10;100.00;96430.78;10516565;28;2322;-70
2023/02/03 12:51:39;;;;;;;;;;;;;;;6.94;100.00;96400.25;10529338;28;2295;-72
2023/02/03 12:56:42;;;;;;;;;;;;;;;7.20;100.00;96420.31;10531263;28;2317;-72
2023/02/03 13:01:44;;;;;;;;;;;;;;;7.03;100.00;96398.84;10509572;28;2258;-73
2023/02/03 13:06:47;;;;;;;;;;;;;;;6.91;100.00;96411.41;10513137;28;2365;-70
2023/02/03 13:11:49;;;;;;;;;;;;;;;6.84;100.00;96401.91;10526332;28;2333;-70
2023/02/03 13:16:52;;;;;;;;;;;;;;;6.74;100.00;96414.00;10524137;28;2275;-72
2023/02/03 13:21:55;;;;;;;;;;;;;;;6.65;100.00;96401.22;10516417;28;2278;-71
2023/02/03 13:26:59;;;;;;;;;;;;;;;6.56;100.00;96407.97;10517282;28;2334;-73
2023/02/03 13:32:02;;;;;;;;;;;;;;;6.63;100.00;96406.00;10523940;28;2374;-75
2023/02/03 13:37:05;;;;;;;;;;;;;;;6.57;100.00;96388.22;10529524;28;2323;-75
2023/02/03 13:42:07;;;;;;;;;;;;;;;6.44;100.00;96382.06;10532175;28;2278;-72
2023/02/03 13:47:09;;;;;;;;;;;;;;;6.29;100.00;96365.66;10526901;28;2330;-74
2023/02/03 13:52:12;;;;;;;;;;;;;;;6.23;100.00;96347.91;10526943;28;2302;-72
2023/02/03 13:57:37;;;;;;;;;;;;;;;6.16;100.00;96360.56;10524247;28;2103;-73
2023/02/03 14:03:00;;;;;;;;;;;;;;;6.13;100.00;96339.69;10529147;28;1959;-72
2023/02/03 14:08:23;;;;;;;;;;;;;;;6.16;100.00;96352.56;10520398;28;2413;-73
2023/02/03 14:13:45;;;;;;;;;;;;;;;6.09;100.00;96311.81;10525744;28;2497;-72
2023/02/03 14:19:08;;;;;;;;;;;;;;;6.04;100.00;96285.00;10526504;28;2329;-72
2023/02/03 14:24:31;;;;;;;;;;;;;;;6.10;100.00;96308.91;10518780;28;2345;-71
2023/02/03 14:29:53;;;;;;;;;;;;;;;6.12;100.00;96311.38;10524770;28;2343;-73
2023/02/03 14:35:16;;;;;;;;;;;;;;;6.15;100.00;96340.25;10528698;28;2417;-71
2023/02/03 14:40:39;;;;;;;;;;;;;;;6.06;100.00;96326.44;10480994;28;2280;-72
2023/02/03 14:46:03;;;;;;;;;;;;;;;5.99;100.00;96316.94;10484528;28;2350;-72
2023/02/03 14:51:26;;;;;;;;;;;;;;;5.98;100.00;96305.44;10476948;28;2240;-73
2023/02/03 15:02:30;;;;;;;;;;;;;;;5.99;100.00;96290.25;10484482;28;2346;-72
2023/02/03 15:07:53;;;;;;;;;;;;;;;5.97;100.00;96283.25;10479040;28;2497;-73
2023/02/03 15:13:15;;;;;;;;;;;;;;;5.95;100.00;96241.84;10485825;28;2255;-72
2023/02/03 15:18:39;;;;;;;;;;;;;;;5.90;100.00;96303.88;10477446;28;2334;-72
2023/02/03 15:24:02;;;;;;;;;;;;;;;5.87;100.00;96309.69;10484409;28;2418;-71
2023/02/03 15:29:05;;;;;;;;;;;;;;;5.82;100.00;96298.91;10480702;28;2271;-70
2023/02/03 15:34:08;;;;;;;;;;;;;;;5.82;100.00;96314.91;10474981;28;2263;-74
2023/02/03 15:39:10;;;;;;;;;;;;;;;5.73;100.00;96345.63;10509256;28;2346;-76
2023/02/03 15:44:13;;;;;;;;;;;;;;;5.67;100.00;96310.03;10516714;28;2310;-73
2023/02/03 15:49:15;;;;;;;;;;;;;;;5.61;100.00;96278.13;10520120;28;2394;-74
2023/02/03 15:54:19;;;;;;;;;;;;;;;5.59;100.00;96314.84;10517889;28;2317;-72
2023/02/03 15:59:21;;;;;;;;;;;;;;;5.65;100.00;96312.09;10526753;28;2314;-71
2023/02/03 16:04:24;;;;;;;;;;;;;;;5.60;100.00;96335.16;10519147;28;2120;-73
2023/02/03 16:09:26;;;;;;;;;;;;;;;5.58;100.00;96315.91;10528216;28;2271;-71
2023/02/03 16:14:29;;;;;;;;;;;;;;;5.59;100.00;96306.84;10524623;28;2026;-73
2023/02/03 16:19:33;;;;;;;;;;;;;;;5.53;100.00;96318.44;10517369;28;2302;-71
2023/02/03 16:24:36;;;;;;;;;;;;;;;5.53;100.00;96307.75;10522879;28;2482;-69
2023/02/03 16:51:00;;;;;;;;;;;;;;;5.34;100.00;96323.84;10524477;28;2353;-70
2023/02/03 16:56:03;;;;;;;;;;;;;;;5.29;100.00;96390.34;10519791;28;2362;-73
2023/02/03 17:01:05;;;;;;;;;;;;;;;5.31;100.00;96393.59;10525981;28;2348;-70
2023/02/03 17:06:09;;;;;;;;;;;;;;;5.27;100.00;96372.94;10528720;28;2235;-70
2023/02/03 17:11:11;;;;;;;;;;;;;;;5.28;100.00;96380.75;10528185;28;2013;-70
2023/02/03 17:16:14;;;;;;;;;;;;;;;5.22;100.00;96396.81;10531812;28;2305;-70
2023/02/03 17:21:16;;;;;;;;;;;;;;;5.13;100.00;96388.28;10528498;28;2026;-73
2023/02/03 17:26:19;;;;;;;;;;;;;;;5.04;100.00;96395.78;10524032;28;2434;-73
2023/02/03 17:31:21;;;;;;;;;;;;;;;5.00;100.00;96415.09;10522554;28;2130;-74
2023/02/03 17:36:24;;;;;;;;;;;;;;;5.07;100.00;96383.84;10520320;28;2294;-71
2023/02/03 17:41:27;;;;;;;;;;;;;;;5.09;100.00;96397.75;10522069;28;2353;-69
2023/02/03 17:46:47;;;;;;;;;;;;;;;5.10;100.00;96404.75;10521996;28;2290;-70
2023/02/03 17:52:08;;;;;;;;;;;;;;;5.05;100.00;96409.91;10521906;28;2486;-72
2023/02/03 17:57:28;;;;;;;;;;;;;;;5.01;100.00;96390.06;10521736;28;2401;-68
2023/02/03 18:02:33;;;;;;;;;;;;;;;4.91;100.00;96406.59;10527906;28;2298;-70
2023/02/03 18:07:35;;;;;;;;;;;;;;;4.87;100.00;96403.56;10522713;28;2291;-69
2023/02/03 18:12:38;;;;;;;;;;;;;;;4.85;100.00;96397.66;10528526;28;2255;-70
2023/02/03 18:17:40;;;;;;;;;;;;;;;4.93;100.00;96403.72;10526811;28;2014;-68
2023/02/03 18:22:43;;;;;;;;;;;;;;;4.97;100.00;96396.91;10523433;28;2318;-70
2023/02/03 18:27:45;;;;;;;;;;;;;;;4.93;100.00;96409.03;10521439;28;1982;-69
2023/02/03 18:32:48;;;;;;;;;;;;;;;4.75;100.00;96392.00;10524298;28;2310;-70
2023/02/03 18:37:51;;;;;;;;;;;;;;;4.74;100.00;96402.88;10527734;28;2350;-69
2023/02/03 18:42:55;;;;;;;;;;;;;;;4.74;100.00;96405.56;10524125;28;1966;-68
2023/02/03 18:47:57;;;;;;;;;;;;;;;4.73;100.00;96391.44;10522131;28;2618;-69
2023/02/03 18:53:00;;;;;;;;;;;;;;;4.69;100.00;96342.28;10525454;28;2531;-70
2023/02/03 18:58:03;;;;;;;;;;;;;;;4.73;100.00;96335.50;10532630;28;2731;-69
2023/02/03 19:03:06;;;;;;;;;;;;;;;4.63;100.00;96313.06;10529296;28;2583;-69
2023/02/03 19:08:09;;;;;;;;;;;;;;;4.40;100.00;96305.78;10532281;28;2806;-70
2023/02/03 19:13:11;;;;;;;;;;;;;;;4.21;100.00;96316.41;10537202;28;1981;-70
2023/02/03 19:18:14;;;;;;;;;;;;;;;4.10;100.00;96341.06;10529625;28;2543;-69
2023/02/03 19:23:16;;;;;;;;;;;;;;;4.04;100.00;96331.28;10535766;28;2611;-70
2023/02/03 19:28:19;;;;;;;;;;;;;;;4.06;100.00;96361.16;10535523;28;1823;-69
2023/02/03 19:33:32;;;;;;;;;;;;;;;4.06;100.00;96339.84;10529125;28;2579;-68
2023/02/03 19:38:34;;;;;;;;;;;;;;;4.04;100.00;96341.94;10520777;28;2937;-73
2023/02/03 19:43:37;;;;;;;;;;;;;;;3.92;100.00;96360.44;10522943;28;2586;-69
2023/02/03 19:48:40;;;;;;;;;;;;;;;3.92;100.00;96378.25;10522121;28;2551;-69
2023/02/03 19:53:43;;;;;;;;;;;;;;;3.92;100.00;96349.00;10518473;28;2648;-70
2023/02/03 19:58:50;;;;;;;;;;;;;;;3.93;100.00;96355.94;10518635;28;2972;-72
2023/02/03 20:03:53;;;;;;;;;;;;;;;4.55;100.00;96364.78;10523187;28;2639;-73
2023/02/03 20:08:56;;;;;;;;;;;;;;;4.16;100.00;96401.38;10526298;28;1985;-69
2023/02/03 20:13:58;;;;;;;;;;;;;;;4.04;100.00;96376.53;10526153;28;1990;-69
2023/02/03 20:19:02;;;;;;;;;;;;;;;3.98;100.00;96393.34;10510726;28;2589;-70
2023/02/03 20:24:05;;;;;;;;;;;;;;;3.95;100.00;96404.44;10526692;28;2621;-70
2023/02/03 20:29:07;;;;;;;;;;;;;;;4.06;100.00;96395.72;10526000;28;2045;-70
2023/02/03 20:34:10;;;;;;;;;;;;;;;4.10;100.00;96394.28;10525464;28;2670;-69
2023/02/03 20:39:12;;;;;;;;;;;;;;;4.15;100.00;96412.25;10525711;28;2602;-68
2023/02/03 20:44:15;;;;;;;;;;;;;;;4.09;100.00;96403.28;10522075;28;2524;-71
2023/02/03 20:49:18;;;;;;;;;;;;;;;4.14;100.00;96406.13;10523154;28;1983;-70
2023/02/03 20:54:21;;;;;;;;;;;;;;;4.14;100.00;96443.38;10529615;28;2646;-70
2023/02/03 20:59:23;;;;;;;;;;;;;;;4.17;100.00;96426.97;10521591;28;3012;-75
2023/02/03 21:09:46;;;;;;;;;;;;;;;4.24;100.00;96417.06;10520377;28;1981;-77
2023/02/03 21:14:48;;;;;;;;;;;;;;;4.23;100.00;96420.78;10523500;28;2621;-69
2023/02/03 21:19:51;;;;;;;;;;;;;;;4.25;100.00;96445.31;10525931;28;2620;-70
2023/02/03 21:24:53;;;;;;;;;;;;;;;4.26;100.00;96438.97;10525768;28;2607;-70
2023/02/03 21:29:56;;;;;;;;;;;;;;;4.22;100.00;96435.13;10526378;28;3031;-68
2023/02/03 21:34:59;;;;;;;;;;;;;;;4.24;100.00;96409.09;10526225;28;2633;-71
2023/02/03 21:40:01;;;;;;;;;;;;;;;4.26;100.00;96393.75;10519628;28;2989;-69
2023/02/03 21:45:03;;;;;;;;;;;;;;;4.28;100.00;96396.97;10517302;28;2586;-69
2023/02/03 21:50:06;;;;;;;;;;;;;;;4.28;100.00;96402.31;10528329;28;2615;-69
2023/02/03 21:55:08;;;;;;;;;;;;;;;4.32;100.00;96413.31;10519078;28;2667;-70
2023/02/03 22:00:11;;;;;;;;;;;;;;;4.25;100.00;96424.03;10523571;28;1999;-69
2023/02/03 22:05:13;;;;;;;;;;;;;;;4.20;100.00;96413.25;10527270;28;2611;-68
2023/02/03 22:10:15;;;;;;;;;;;;;;;4.21;100.00;96411.38;10524695;28;2559;-68
2023/02/03 22:15:18;;;;;;;;;;;;;;;4.16;100.00;96428.00;10516010;28;2614;-70
2023/02/03 22:20:20;;;;;;;;;;;;;;;4.09;100.00;96435.22;10519996;28;2575;-69
2023/02/03 22:25:22;;;;;;;;;;;;;;;4.05;100.00;96420.72;10524678;28;2631;-70
2023/02/03 22:30:25;;;;;;;;;;;;;;;4.00;100.00;96449.81;10522839;28;1962;-69
2023/02/03 22:35:27;;;;;;;;;;;;;;;3.93;100.00;96441.88;10498990;28;2693;-70
2023/02/03 22:40:29;;;;;;;;;;;;;;;3.96;100.00;96440.63;10515610;28;2634;-70
2023/02/03 22:45:32;;;;;;;;;;;;;;;3.91;100.00;96453.75;10522029;28;2542;-71
2023/02/03 22:50:35;;;;;;;;;;;;;;;3.85;100.00;96458.09;10519527;28;2642;-70
2023/02/03 22:55:38;;;;;;;;;;;;;;;3.82;100.00;96471.00;10519655;28;2003;-69
2023/02/03 23:00:40;;;;;;;;;;;;;;;3.73;100.00;96479.22;10517092;28;1974;-71
2023/02/03 23:05:43;;;;;;;;;;;;;;;3.74;100.00;96496.81;10518196;28;2552;-67
2023/02/03 23:10:47;;;;;;;;;;;;;;;3.70;100.00;96508.91;10519211;28;2630;-69
2023/02/03 23:15:49;;;;;;;;;;;;;;;3.67;100.00;96514.63;10520807;28;2635;-68
2023/02/03 23:20:51;;;;;;;;;;;;;;;3.63;100.00;96515.28;10519525;28;2263;-70
2023/02/03 23:25:54;;;;;;;;;;;;;;;3.63;100.00;96537.38;10516774;28;2563;-69
2023/02/03 23:30:56;;;;;;;;;;;;;;;3.61;100.00;96542.06;10523092;28;2595;-69
2023/02/03 23:35:59;;;;;;;;;;;;;;;3.60;100.00;96537.78;10528833;28;2042;-70
2023/02/03 23:41:02;;;;;;;;;;;;;;;3.56;100.00;96538.41;10531271;28;2643;-69
2023/02/03 23:46:04;;;;;;;;;;;;;;;3.61;100.00;96547.38;10533834;28;2564;-69
2023/02/03 23:51:06;;;;;;;;;;;;;;;3.54;100.00;96578.50;10533354;28;2551;-67
2023/02/03 23:56:08;;;;;;;;;;;;;;;3.46;100.00;96589.38;10526083;28;2562;-69
